sensor_id;sensor_type;location;lat;lon;timestamp;P1;P2;P0
73241;PMS5003;65659;49.234;-2.094;2023-02-28T00:00:06;0;0;
73241;PMS5003;65659;49.234;-2.094;2023-02-28T00:02:31;1;1;
73241;PMS5003;65659;49.234;-2.094;2023-02-28T00:04:57;1;1;
73241;PMS5003;65659;49.234;-2.094;2023-02-28T00:07:23;0;0;
73241;PMS5003;65659;49.234;-2.094;2023-02-28T00:09:49;0;0;
73241;PMS5003;65659;49.234;-2.094;2023-02-28T00:12:14;0;0;
73241;PMS5003;65659;49.234;-2.094;2023-02-28T00:14:40;0;0;
73241;PMS5003;65659;49.234;-2.094;2023-02-28T00:17:06;1;0;
73241;PMS5003;65659;49.234;-2.094;2023-02-28T00:19:32;1;0;
73241;PMS5003;65659;49.234;-2.094;2023-02-28T00:21:57;0;0;
73241;PMS5003;65659;49.234;-2.094;2023-02-28T00:24:23;1;1;
73241;PMS5003;65659;49.234;-2.094;2023-02-28T00:26:49;1;1;
73241;PMS5003;65659;49.234;-2.094;2023-02-28T00:29:14;1;1;
73241;PMS5003;65659;49.234;-2.094;2023-02-28T00:31:40;1;1;
73241;PMS5003;65659;49.234;-2.094;2023-02-28T00:34:06;0;0;
73241;PMS5003;65659;49.234;-2.094;2023-02-28T00:36:32;1;1;
73241;PMS5003;65659;49.234;-2.094;2023-02-28T00:38:57;0;0;
73241;PMS5003;65659;49.234;-2.094;2023-02-28T00:41:23;0;0;
73241;PMS5003;65659;49.234;-2.094;2023-02-28T00:43:49;2;1;
73241;PMS5003;65659;49.234;-2.094;2023-02-28T00:46:15;1;1;
73241;PMS5003;65659;49.234;-2.094;2023-02-28T00:48:40;1;1;
73241;PMS5003;65659;49.234;-2.094;2023-02-28T00:51:06;1;1;
73241;PMS5003;65659;49.234;-2.094;2023-02-28T00:53:32;3;2;
73241;PMS5003;65659;49.234;-2.094;2023-02-28T00:55:58;1;1;
73241;PMS5003;65659;49.234;-2.094;2023-02-28T00:58:23;1;1;
73241;PMS5003;65659;49.234;-2.094;2023-02-28T01:00:50;1;1;
73241;PMS5003;65659;49.234;-2.094;2023-02-28T01:03:15;0;0;
73241;PMS5003;65659;49.234;-2.094;2023-02-28T01:05:41;1;1;
73241;PMS5003;65659;49.234;-2.094;2023-02-28T01:08:06;0;0;
73241;PMS5003;65659;49.234;-2.094;2023-02-28T01:10:32;0;0;
73241;PMS5003;65659;49.234;-2.094;2023-02-28T01:12:58;0;0;
73241;PMS5003;65659;49.234;-2.094;2023-02-28T01:15:24;1;1;
73241;PMS5003;65659;49.234;-2.094;2023-02-28T01:17:49;2;1;
73241;PMS5003;65659;49.234;-2.094;2023-02-28T01:20:15;1;1;
73241;PMS5003;65659;49.234;-2.094;2023-02-28T01:22:41;1;1;
73241;PMS5003;65659;49.234;-2.094;2023-02-28T01:25:07;1;1;
73241;PMS5003;65659;49.234;-2.094;2023-02-28T01:27:33;1;1;
73241;PMS5003;65659;49.234;-2.094;2023-02-28T01:29:58;1;1;
73241;PMS5003;65659;49.234;-2.094;2023-02-28T01:32:24;1;1;
73241;PMS5003;65659;49.234;-2.094;2023-02-28T01:34:49;3;2;
73241;PMS5003;65659;49.234;-2.094;2023-02-28T01:37:15;1;1;
73241;PMS5003;65659;49.234;-2.094;2023-02-28T01:39:41;1;1;
73241;PMS5003;65659;49.234;-2.094;2023-02-28T01:42:08;1;1;
73241;PMS5003;65659;49.234;-2.094;2023-02-28T01:46:58;2;2;
73241;PMS5003;65659;49.234;-2.094;2023-02-28T01:49:24;2;2;
73241;PMS5003;65659;49.234;-2.094;2023-02-28T01:51:50;1;1;
73241;PMS5003;65659;49.234;-2.094;2023-02-28T01:54:16;1;1;
73241;PMS5003;65659;49.234;-2.094;2023-02-28T01:56:43;0;0;
73241;PMS5003;65659;49.234;-2.094;2023-02-28T01:59:06;1;1;
73241;PMS5003;65659;49.234;-2.094;2023-02-28T02:01:32;2;2;
73241;PMS5003;65659;49.234;-2.094;2023-02-28T02:03:59;4;3;
73241;PMS5003;65659;49.234;-2.094;2023-02-28T02:06:24;0;0;
73241;PMS5003;65659;49.234;-2.094;2023-02-28T02:08:49;2;2;
73241;PMS5003;65659;49.234;-2.094;2023-02-28T02:11:17;1;1;
73241;PMS5003;65659;49.234;-2.094;2023-02-28T02:13:45;2;2;
73241;PMS5003;65659;49.234;-2.094;2023-02-28T02:16:10;2;2;
73241;PMS5003;65659;49.234;-2.094;2023-02-28T02:18:33;1;1;
73241;PMS5003;65659;49.234;-2.094;2023-02-28T02:21:09;2;2;
73241;PMS5003;65659;49.234;-2.094;2023-02-28T02:23:32;2;2;
73241;PMS5003;65659;49.234;-2.094;2023-02-28T02:25:50;2;2;
73241;PMS5003;65659;49.234;-2.094;2023-02-28T02:28:21;2;2;
73241;PMS5003;65659;49.234;-2.094;2023-02-28T02:30:44;2;2;
73241;PMS5003;65659;49.234;-2.094;2023-02-28T02:33:14;1;1;
73241;PMS5003;65659;49.234;-2.094;2023-02-28T02:35:34;1;1;
73241;PMS5003;65659;49.234;-2.094;2023-02-28T02:37:59;1;1;
73241;PMS5003;65659;49.234;-2.094;2023-02-28T02:40:25;1;1;
73241;PMS5003;65659;49.234;-2.094;2023-02-28T02:42:51;3;3;
73241;PMS5003;65659;49.234;-2.094;2023-02-28T02:45:16;3;2;
73241;PMS5003;65659;49.234;-2.094;2023-02-28T02:47:41;2;2;
73241;PMS5003;65659;49.234;-2.094;2023-02-28T02:50:08;1;1;
73241;PMS5003;65659;49.234;-2.094;2023-02-28T02:52:34;3;3;
73241;PMS5003;65659;49.234;-2.094;2023-02-28T02:54:58;2;2;
73241;PMS5003;65659;49.234;-2.094;2023-02-28T02:57:25;2;2;
73241;PMS5003;65659;49.234;-2.094;2023-02-28T02:59:50;1;0;
73241;PMS5003;65659;49.234;-2.094;2023-02-28T03:02:16;3;3;
73241;PMS5003;65659;49.234;-2.094;2023-02-28T03:04:42;2;1;
73241;PMS5003;65659;49.234;-2.094;2023-02-28T03:07:07;4;4;
73241;PMS5003;65659;49.234;-2.094;2023-02-28T03:09:33;1;1;
73241;PMS5003;65659;49.234;-2.094;2023-02-28T03:11:59;4;4;
73241;PMS5003;65659;49.234;-2.094;2023-02-28T03:14:28;3;3;
73241;PMS5003;65659;49.234;-2.094;2023-02-28T03:16:56;3;3;
73241;PMS5003;65659;49.234;-2.094;2023-02-28T03:19:20;0;0;
73241;PMS5003;65659;49.234;-2.094;2023-02-28T03:21:43;2;2;
73241;PMS5003;65659;49.234;-2.094;2023-02-28T03:24:08;1;1;
73241;PMS5003;65659;49.234;-2.094;2023-02-28T03:26:34;3;3;
73241;PMS5003;65659;49.234;-2.094;2023-02-28T03:29:01;2;2;
73241;PMS5003;65659;49.234;-2.094;2023-02-28T03:31:26;3;3;
73241;PMS5003;65659;49.234;-2.094;2023-02-28T03:33:51;3;3;
73241;PMS5003;65659;49.234;-2.094;2023-02-28T03:36:17;4;4;
73241;PMS5003;65659;49.234;-2.094;2023-02-28T03:38:44;3;2;
73241;PMS5003;65659;49.234;-2.094;2023-02-28T03:41:10;2;2;
73241;PMS5003;65659;49.234;-2.094;2023-02-28T03:43:34;4;3;
73241;PMS5003;65659;49.234;-2.094;2023-02-28T03:45:59;4;4;
73241;PMS5003;65659;49.234;-2.094;2023-02-28T03:48:26;3;3;
73241;PMS5003;65659;49.234;-2.094;2023-02-28T03:50:52;2;2;
73241;PMS5003;65659;49.234;-2.094;2023-02-28T03:53:18;2;2;
73241;PMS5003;65659;49.234;-2.094;2023-02-28T03:55:43;3;3;
73241;PMS5003;65659;49.234;-2.094;2023-02-28T03:58:10;4;3;
73241;PMS5003;65659;49.234;-2.094;2023-02-28T04:00:34;4;4;
73241;PMS5003;65659;49.234;-2.094;2023-02-28T04:02:59;3;3;
73241;PMS5003;65659;49.234;-2.094;2023-02-28T04:05:25;3;3;
73241;PMS5003;65659;49.234;-2.094;2023-02-28T04:07:51;3;3;
73241;PMS5003;65659;49.234;-2.094;2023-02-28T04:10:16;2;2;
73241;PMS5003;65659;49.234;-2.094;2023-02-28T04:12:42;2;2;
73241;PMS5003;65659;49.234;-2.094;2023-02-28T04:15:08;4;3;
73241;PMS5003;65659;49.234;-2.094;2023-02-28T04:17:33;4;4;
73241;PMS5003;65659;49.234;-2.094;2023-02-28T04:19:59;3;3;
73241;PMS5003;65659;49.234;-2.094;2023-02-28T04:22:25;5;5;
73241;PMS5003;65659;49.234;-2.094;2023-02-28T04:24:51;3;3;
73241;PMS5003;65659;49.234;-2.094;2023-02-28T04:27:17;2;2;
73241;PMS5003;65659;49.234;-2.094;2023-02-28T04:29:42;3;3;
73241;PMS5003;65659;49.234;-2.094;2023-02-28T04:32:08;4;4;
73241;PMS5003;65659;49.234;-2.094;2023-02-28T04:34:34;3;3;
73241;PMS5003;65659;49.234;-2.094;2023-02-28T04:36:59;4;4;
73241;PMS5003;65659;49.234;-2.094;2023-02-28T04:39:25;4;4;
73241;PMS5003;65659;49.234;-2.094;2023-02-28T04:41:51;2;2;
73241;PMS5003;65659;49.234;-2.094;2023-02-28T04:44:17;3;3;
73241;PMS5003;65659;49.234;-2.094;2023-02-28T04:46:43;1;1;
73241;PMS5003;65659;49.234;-2.094;2023-02-28T04:49:09;4;3;
73241;PMS5003;65659;49.234;-2.094;2023-02-28T04:51:34;3;3;
73241;PMS5003;65659;49.234;-2.094;2023-02-28T04:54:00;4;4;
73241;PMS5003;65659;49.234;-2.094;2023-02-28T04:56:26;5;4;
73241;PMS5003;65659;49.234;-2.094;2023-02-28T04:58:51;2;2;
73241;PMS5003;65659;49.234;-2.094;2023-02-28T05:01:18;7;7;
73241;PMS5003;65659;49.234;-2.094;2023-02-28T05:03:42;4;4;
73241;PMS5003;65659;49.234;-2.094;2023-02-28T05:06:07;3;3;
73241;PMS5003;65659;49.234;-2.094;2023-02-28T05:08:33;2;2;
73241;PMS5003;65659;49.234;-2.094;2023-02-28T05:10:59;2;2;
73241;PMS5003;65659;49.234;-2.094;2023-02-28T05:13:24;3;3;
73241;PMS5003;65659;49.234;-2.094;2023-02-28T05:15:50;4;4;
73241;PMS5003;65659;49.234;-2.094;2023-02-28T05:18:16;3;3;
73241;PMS5003;65659;49.234;-2.094;2023-02-28T05:20:42;3;3;
73241;PMS5003;65659;49.234;-2.094;2023-02-28T05:23:08;3;2;
73241;PMS5003;65659;49.234;-2.094;2023-02-28T05:25:33;3;3;
73241;PMS5003;65659;49.234;-2.094;2023-02-28T05:27:59;4;4;
73241;PMS5003;65659;49.234;-2.094;2023-02-28T05:30:25;4;4;
73241;PMS5003;65659;49.234;-2.094;2023-02-28T05:32:51;4;4;
73241;PMS5003;65659;49.234;-2.094;2023-02-28T05:35:16;2;2;
73241;PMS5003;65659;49.234;-2.094;2023-02-28T05:37:42;3;3;
73241;PMS5003;65659;49.234;-2.094;2023-02-28T05:40:08;3;3;
73241;PMS5003;65659;49.234;-2.094;2023-02-28T05:42:34;2;2;
73241;PMS5003;65659;49.234;-2.094;2023-02-28T05:44:59;2;2;
73241;PMS5003;65659;49.234;-2.094;2023-02-28T05:47:25;2;2;
73241;PMS5003;65659;49.234;-2.094;2023-02-28T05:49:51;2;2;
73241;PMS5003;65659;49.234;-2.094;2023-02-28T05:52:17;3;3;
73241;PMS5003;65659;49.234;-2.094;2023-02-28T05:54:42;3;3;
73241;PMS5003;65659;49.234;-2.094;2023-02-28T05:57:08;2;2;
73241;PMS5003;65659;49.234;-2.094;2023-02-28T05:59:34;3;2;
73241;PMS5003;65659;49.234;-2.094;2023-02-28T06:01:59;3;2;
73241;PMS5003;65659;49.234;-2.094;2023-02-28T06:04:25;4;3;
73241;PMS5003;65659;49.234;-2.094;2023-02-28T06:06:51;1;1;
73241;PMS5003;65659;49.234;-2.094;2023-02-28T06:09:17;1;1;
73241;PMS5003;65659;49.234;-2.094;2023-02-28T06:11:43;3;3;
73241;PMS5003;65659;49.234;-2.094;2023-02-28T06:14:09;2;2;
73241;PMS5003;65659;49.234;-2.094;2023-02-28T06:16:34;3;3;
73241;PMS5003;65659;49.234;-2.094;2023-02-28T06:19:00;2;2;
73241;PMS5003;65659;49.234;-2.094;2023-02-28T06:21:26;3;3;
73241;PMS5003;65659;49.234;-2.094;2023-02-28T06:23:52;1;1;
73241;PMS5003;65659;49.234;-2.094;2023-02-28T06:26:17;3;2;
73241;PMS5003;65659;49.234;-2.094;2023-02-28T06:28:43;2;2;
73241;PMS5003;65659;49.234;-2.094;2023-02-28T06:31:09;2;2;
73241;PMS5003;65659;49.234;-2.094;2023-02-28T06:33:34;2;2;
73241;PMS5003;65659;49.234;-2.094;2023-02-28T06:36:00;4;3;
73241;PMS5003;65659;49.234;-2.094;2023-02-28T06:38:26;3;3;
73241;PMS5003;65659;49.234;-2.094;2023-02-28T06:40:53;3;3;
73241;PMS5003;65659;49.234;-2.094;2023-02-28T06:43:17;3;3;
73241;PMS5003;65659;49.234;-2.094;2023-02-28T06:45:43;3;3;
73241;PMS5003;65659;49.234;-2.094;2023-02-28T06:48:09;2;2;
73241;PMS5003;65659;49.234;-2.094;2023-02-28T06:50:34;1;1;
73241;PMS5003;65659;49.234;-2.094;2023-02-28T06:53:00;2;2;
73241;PMS5003;65659;49.234;-2.094;2023-02-28T06:55:26;2;2;
73241;PMS5003;65659;49.234;-2.094;2023-02-28T06:57:52;2;2;
73241;PMS5003;65659;49.234;-2.094;2023-02-28T07:00:18;1;1;
73241;PMS5003;65659;49.234;-2.094;2023-02-28T07:02:43;2;2;
73241;PMS5003;65659;49.234;-2.094;2023-02-28T07:05:09;3;3;
73241;PMS5003;65659;49.234;-2.094;2023-02-28T07:07:35;2;2;
73241;PMS5003;65659;49.234;-2.094;2023-02-28T07:10:00;2;2;
73241;PMS5003;65659;49.234;-2.094;2023-02-28T07:12:26;2;2;
73241;PMS5003;65659;49.234;-2.094;2023-02-28T07:14:52;1;1;
73241;PMS5003;65659;49.234;-2.094;2023-02-28T07:17:18;2;2;
73241;PMS5003;65659;49.234;-2.094;2023-02-28T07:19:43;0;0;
73241;PMS5003;65659;49.234;-2.094;2023-02-28T07:22:09;2;2;
73241;PMS5003;65659;49.234;-2.094;2023-02-28T07:24:35;1;1;
73241;PMS5003;65659;49.234;-2.094;2023-02-28T07:27:01;2;2;
73241;PMS5003;65659;49.234;-2.094;2023-02-28T07:29:26;2;2;
73241;PMS5003;65659;49.234;-2.094;2023-02-28T07:31:52;2;1;
73241;PMS5003;65659;49.234;-2.094;2023-02-28T07:34:18;2;2;
73241;PMS5003;65659;49.234;-2.094;2023-02-28T07:36:44;2;2;
73241;PMS5003;65659;49.234;-2.094;2023-02-28T07:39:09;2;2;
73241;PMS5003;65659;49.234;-2.094;2023-02-28T07:41:35;2;2;
73241;PMS5003;65659;49.234;-2.094;2023-02-28T07:44:01;2;2;
73241;PMS5003;65659;49.234;-2.094;2023-02-28T07:46:27;2;2;
73241;PMS5003;65659;49.234;-2.094;2023-02-28T07:48:53;2;2;
73241;PMS5003;65659;49.234;-2.094;2023-02-28T07:51:18;1;1;
73241;PMS5003;65659;49.234;-2.094;2023-02-28T07:53:44;2;2;
73241;PMS5003;65659;49.234;-2.094;2023-02-28T07:56:10;2;2;
73241;PMS5003;65659;49.234;-2.094;2023-02-28T07:58:35;2;2;
73241;PMS5003;65659;49.234;-2.094;2023-02-28T08:01:04;1;1;
73241;PMS5003;65659;49.234;-2.094;2023-02-28T08:03:27;4;4;
73241;PMS5003;65659;49.234;-2.094;2023-02-28T08:05:53;2;2;
73241;PMS5003;65659;49.234;-2.094;2023-02-28T08:08:19;0;0;
73241;PMS5003;65659;49.234;-2.094;2023-02-28T08:10:44;1;1;
73241;PMS5003;65659;49.234;-2.094;2023-02-28T08:13:10;2;2;
73241;PMS5003;65659;49.234;-2.094;2023-02-28T08:15:36;2;2;
73241;PMS5003;65659;49.234;-2.094;2023-02-28T08:18:02;1;1;
73241;PMS5003;65659;49.234;-2.094;2023-02-28T08:20:27;3;3;
73241;PMS5003;65659;49.234;-2.094;2023-02-28T08:22:53;1;1;
73241;PMS5003;65659;49.234;-2.094;2023-02-28T08:25:19;3;2;
73241;PMS5003;65659;49.234;-2.094;2023-02-28T08:27:45;1;1;
73241;PMS5003;65659;49.234;-2.094;2023-02-28T08:30:11;3;3;
73241;PMS5003;65659;49.234;-2.094;2023-02-28T08:32:36;2;2;
73241;PMS5003;65659;49.234;-2.094;2023-02-28T08:35:02;3;3;
73241;PMS5003;65659;49.234;-2.094;2023-02-28T08:37:28;2;2;
73241;PMS5003;65659;49.234;-2.094;2023-02-28T08:39:53;3;3;
73241;PMS5003;65659;49.234;-2.094;2023-02-28T08:42:19;2;2;
73241;PMS5003;65659;49.234;-2.094;2023-02-28T08:44:45;0;0;
73241;PMS5003;65659;49.234;-2.094;2023-02-28T08:47:11;2;2;
73241;PMS5003;65659;49.234;-2.094;2023-02-28T08:49:36;1;1;
73241;PMS5003;65659;49.234;-2.094;2023-02-28T08:52:02;2;2;
73241;PMS5003;65659;49.234;-2.094;2023-02-28T08:54:28;1;1;
73241;PMS5003;65659;49.234;-2.094;2023-02-28T08:56:53;2;2;
73241;PMS5003;65659;49.234;-2.094;2023-02-28T08:59:20;2;2;
73241;PMS5003;65659;49.234;-2.094;2023-02-28T09:01:45;3;2;
73241;PMS5003;65659;49.234;-2.094;2023-02-28T09:04:11;2;2;
73241;PMS5003;65659;49.234;-2.094;2023-02-28T09:06:37;1;1;
73241;PMS5003;65659;49.234;-2.094;2023-02-28T09:09:04;2;1;
73241;PMS5003;65659;49.234;-2.094;2023-02-28T09:11:28;3;2;
73241;PMS5003;65659;49.234;-2.094;2023-02-28T09:13:54;4;3;
73241;PMS5003;65659;49.234;-2.094;2023-02-28T09:16:20;3;3;
73241;PMS5003;65659;49.234;-2.094;2023-02-28T09:18:46;2;2;
73241;PMS5003;65659;49.234;-2.094;2023-02-28T09:21:12;5;4;
73241;PMS5003;65659;49.234;-2.094;2023-02-28T09:23:37;2;2;
73241;PMS5003;65659;49.234;-2.094;2023-02-28T09:26:02;2;2;
73241;PMS5003;65659;49.234;-2.094;2023-02-28T09:28:28;5;4;
73241;PMS5003;65659;49.234;-2.094;2023-02-28T09:30:54;3;2;
73241;PMS5003;65659;49.234;-2.094;2023-02-28T09:33:20;3;3;
73241;PMS5003;65659;49.234;-2.094;2023-02-28T09:35:45;2;2;
73241;PMS5003;65659;49.234;-2.094;2023-02-28T09:38:11;3;2;
73241;PMS5003;65659;49.234;-2.094;2023-02-28T09:40:47;4;4;
73241;PMS5003;65659;49.234;-2.094;2023-02-28T09:43:02;5;4;
73241;PMS5003;65659;49.234;-2.094;2023-02-28T09:45:29;4;4;
73241;PMS5003;65659;49.234;-2.094;2023-02-28T09:47:54;4;4;
73241;PMS5003;65659;49.234;-2.094;2023-02-28T09:50:23;3;3;
73241;PMS5003;65659;49.234;-2.094;2023-02-28T09:52:47;3;3;
73241;PMS5003;65659;49.234;-2.094;2023-02-28T09:55:18;7;5;
73241;PMS5003;65659;49.234;-2.094;2023-02-28T09:57:37;2;2;
73241;PMS5003;65659;49.234;-2.094;2023-02-28T10:00:06;4;4;
73241;PMS5003;65659;49.234;-2.094;2023-02-28T10:04:56;4;4;
73241;PMS5003;65659;49.234;-2.094;2023-02-28T10:07:23;9;9;
73241;PMS5003;65659;49.234;-2.094;2023-02-28T10:09:46;5;5;
73241;PMS5003;65659;49.234;-2.094;2023-02-28T10:12:11;4;4;
73241;PMS5003;65659;49.234;-2.094;2023-02-28T10:14:37;3;3;
73241;PMS5003;65659;49.234;-2.094;2023-02-28T10:17:04;4;4;
73241;PMS5003;65659;49.234;-2.094;2023-02-28T10:19:30;4;4;
73241;PMS5003;65659;49.234;-2.094;2023-02-28T10:21:55;5;5;
73241;PMS5003;65659;49.234;-2.094;2023-02-28T10:24:21;6;5;
73241;PMS5003;65659;49.234;-2.094;2023-02-28T10:26:45;4;4;
73241;PMS5003;65659;49.234;-2.094;2023-02-28T10:29:11;5;4;
73241;PMS5003;65659;49.234;-2.094;2023-02-28T10:31:37;4;4;
73241;PMS5003;65659;49.234;-2.094;2023-02-28T10:34:03;5;5;
73241;PMS5003;65659;49.234;-2.094;2023-02-28T10:36:28;4;4;
73241;PMS5003;65659;49.234;-2.094;2023-02-28T10:38:54;4;4;
73241;PMS5003;65659;49.234;-2.094;2023-02-28T10:43:45;7;7;
73241;PMS5003;65659;49.234;-2.094;2023-02-28T10:46:12;8;8;
73241;PMS5003;65659;49.234;-2.094;2023-02-28T10:48:38;7;7;
73241;PMS5003;65659;49.234;-2.094;2023-02-28T10:51:04;6;6;
73241;PMS5003;65659;49.234;-2.094;2023-02-28T10:53:30;8;8;
73241;PMS5003;65659;49.234;-2.094;2023-02-28T10:55:57;9;7;
73241;PMS5003;65659;49.234;-2.094;2023-02-28T10:58:22;6;6;
73241;PMS5003;65659;49.234;-2.094;2023-02-28T11:00:46;6;6;
73241;PMS5003;65659;49.234;-2.094;2023-02-28T11:05:37;8;7;
73241;PMS5003;65659;49.234;-2.094;2023-02-28T11:08:05;7;7;
73241;PMS5003;65659;49.234;-2.094;2023-02-28T11:10:30;7;7;
73241;PMS5003;65659;49.234;-2.094;2023-02-28T11:12:55;6;6;
73241;PMS5003;65659;49.234;-2.094;2023-02-28T11:15:22;4;4;
73241;PMS5003;65659;49.234;-2.094;2023-02-28T11:17:49;3;3;
73241;PMS5003;65659;49.234;-2.094;2023-02-28T11:20:18;5;4;
73241;PMS5003;65659;49.234;-2.094;2023-02-28T11:22:38;5;5;
73241;PMS5003;65659;49.234;-2.094;2023-02-28T11:25:07;4;4;
73241;PMS5003;65659;49.234;-2.094;2023-02-28T11:29:54;5;5;
73241;PMS5003;65659;49.234;-2.094;2023-02-28T11:32:20;4;3;
73241;PMS5003;65659;49.234;-2.094;2023-02-28T11:34:46;4;4;
73241;PMS5003;65659;49.234;-2.094;2023-02-28T11:37:12;5;5;
73241;PMS5003;65659;49.234;-2.094;2023-02-28T11:39:37;5;4;
73241;PMS5003;65659;49.234;-2.094;2023-02-28T11:42:07;3;3;
73241;PMS5003;65659;49.234;-2.094;2023-02-28T11:44:32;4;4;
73241;PMS5003;65659;49.234;-2.094;2023-02-28T11:46:56;4;4;
73241;PMS5003;65659;49.234;-2.094;2023-02-28T11:49:25;4;4;
73241;PMS5003;65659;49.234;-2.094;2023-02-28T11:51:47;4;4;
73241;PMS5003;65659;49.234;-2.094;2023-02-28T11:54:18;2;2;
73241;PMS5003;65659;49.234;-2.094;2023-02-28T11:56:38;4;4;
73241;PMS5003;65659;49.234;-2.094;2023-02-28T11:59:08;5;5;
73241;PMS5003;65659;49.234;-2.094;2023-02-28T12:01:35;5;5;
73241;PMS5003;65659;49.234;-2.094;2023-02-28T12:03:58;4;4;
73241;PMS5003;65659;49.234;-2.094;2023-02-28T12:06:22;3;3;
73241;PMS5003;65659;49.234;-2.094;2023-02-28T12:08:49;3;3;
73241;PMS5003;65659;49.234;-2.094;2023-02-28T12:11:13;4;3;
73241;PMS5003;65659;49.234;-2.094;2023-02-28T12:13:41;4;4;
73241;PMS5003;65659;49.234;-2.094;2023-02-28T12:18:34;7;7;
73241;PMS5003;65659;49.234;-2.094;2023-02-28T12:20:57;4;3;
73241;PMS5003;65659;49.234;-2.094;2023-02-28T12:23:23;3;3;
73241;PMS5003;65659;49.234;-2.094;2023-02-28T12:25:48;2;2;
73241;PMS5003;65659;49.234;-2.094;2023-02-28T12:28:12;4;4;
73241;PMS5003;65659;49.234;-2.094;2023-02-28T12:30:38;2;2;
73241;PMS5003;65659;49.234;-2.094;2023-02-28T12:33:04;3;3;
73241;PMS5003;65659;49.234;-2.094;2023-02-28T12:35:31;3;3;
73241;PMS5003;65659;49.234;-2.094;2023-02-28T12:37:56;3;3;
73241;PMS5003;65659;49.234;-2.094;2023-02-28T12:40:21;4;3;
73241;PMS5003;65659;49.234;-2.094;2023-02-28T12:42:47;4;3;
73241;PMS5003;65659;49.234;-2.094;2023-02-28T12:45:13;4;4;
73241;PMS5003;65659;49.234;-2.094;2023-02-28T12:47:38;3;3;
73241;PMS5003;65659;49.234;-2.094;2023-02-28T12:50:05;3;3;
73241;PMS5003;65659;49.234;-2.094;2023-02-28T12:52:33;3;3;
73241;PMS5003;65659;49.234;-2.094;2023-02-28T12:54:55;3;3;
73241;PMS5003;65659;49.234;-2.094;2023-02-28T12:57:25;3;3;
73241;PMS5003;65659;49.234;-2.094;2023-02-28T12:59:48;1;1;
73241;PMS5003;65659;49.234;-2.094;2023-02-28T13:02:23;3;2;
73241;PMS5003;65659;49.234;-2.094;2023-02-28T13:04:43;3;3;
73241;PMS5003;65659;49.234;-2.094;2023-02-28T13:07:10;3;3;
73241;PMS5003;65659;49.234;-2.094;2023-02-28T13:09:29;2;2;
73241;PMS5003;65659;49.234;-2.094;2023-02-28T13:11:55;3;3;
73241;PMS5003;65659;49.234;-2.094;2023-02-28T13:14:23;3;3;
73241;PMS5003;65659;49.234;-2.094;2023-02-28T13:16:48;4;4;
73241;PMS5003;65659;49.234;-2.094;2023-02-28T13:19:17;3;3;
73241;PMS5003;65659;49.234;-2.094;2023-02-28T13:21:43;3;2;
73241;PMS5003;65659;49.234;-2.094;2023-02-28T13:24:04;2;2;
73241;PMS5003;65659;49.234;-2.094;2023-02-28T13:28:57;2;2;
73241;PMS5003;65659;49.234;-2.094;2023-02-28T13:31:21;3;3;
73241;PMS5003;65659;49.234;-2.094;2023-02-28T13:38:39;4;3;
73241;PMS5003;65659;49.234;-2.094;2023-02-28T13:46:06;1;1;
73241;PMS5003;65659;49.234;-2.094;2023-02-28T13:48:22;2;1;
73241;PMS5003;65659;49.234;-2.094;2023-02-28T13:50:47;2;2;
73241;PMS5003;65659;49.234;-2.094;2023-02-28T13:55:43;2;2;
73241;PMS5003;65659;49.234;-2.094;2023-02-28T13:58:09;2;2;
73241;PMS5003;65659;49.234;-2.094;2023-02-28T14:00:33;1;1;
73241;PMS5003;65659;49.234;-2.094;2023-02-28T14:03:05;4;2;
73241;PMS5003;65659;49.234;-2.094;2023-02-28T14:05:23;1;1;
73241;PMS5003;65659;49.234;-2.094;2023-02-28T14:07:49;2;2;
73241;PMS5003;65659;49.234;-2.094;2023-02-28T14:17:30;2;1;
73241;PMS5003;65659;49.234;-2.094;2023-02-28T14:19:56;2;2;
73241;PMS5003;65659;49.234;-2.094;2023-02-28T14:22:31;2;1;
73241;PMS5003;65659;49.234;-2.094;2023-02-28T14:24:54;1;1;
73241;PMS5003;65659;49.234;-2.094;2023-02-28T14:27:17;1;1;
73241;PMS5003;65659;49.234;-2.094;2023-02-28T14:29:53;1;1;
73241;PMS5003;65659;49.234;-2.094;2023-02-28T14:32:06;1;1;
73241;PMS5003;65659;49.234;-2.094;2023-02-28T14:36:57;1;1;
73241;PMS5003;65659;49.234;-2.094;2023-02-28T14:39:22;2;2;
73241;PMS5003;65659;49.234;-2.094;2023-02-28T14:41:47;1;1;
73241;PMS5003;65659;49.234;-2.094;2023-02-28T14:44:14;1;1;
73241;PMS5003;65659;49.234;-2.094;2023-02-28T14:46:39;2;2;
73241;PMS5003;65659;49.234;-2.094;2023-02-28T14:49:13;2;2;
73241;PMS5003;65659;49.234;-2.094;2023-02-28T14:51:30;2;2;
73241;PMS5003;65659;49.234;-2.094;2023-02-28T14:53:57;1;1;
73241;PMS5003;65659;49.234;-2.094;2023-02-28T14:56:22;3;2;
73241;PMS5003;65659;49.234;-2.094;2023-02-28T14:58:50;0;0;
73241;PMS5003;65659;49.234;-2.094;2023-02-28T15:01:12;1;1;
73241;PMS5003;65659;49.234;-2.094;2023-02-28T15:03:39;0;0;
73241;PMS5003;65659;49.234;-2.094;2023-02-28T15:06:05;1;1;
73241;PMS5003;65659;49.234;-2.094;2023-02-28T15:08:30;1;1;
73241;PMS5003;65659;49.234;-2.094;2023-02-28T15:10:56;1;1;
73241;PMS5003;65659;49.234;-2.094;2023-02-28T15:13:21;1;1;
73241;PMS5003;65659;49.234;-2.094;2023-02-28T15:15:48;2;1;
73241;PMS5003;65659;49.234;-2.094;2023-02-28T15:18:15;2;2;
73241;PMS5003;65659;49.234;-2.094;2023-02-28T15:20:39;1;1;
73241;PMS5003;65659;49.234;-2.094;2023-02-28T15:23:04;3;2;
73241;PMS5003;65659;49.234;-2.094;2023-02-28T15:25:30;2;2;
73241;PMS5003;65659;49.234;-2.094;2023-02-28T15:27:55;3;1;
73241;PMS5003;65659;49.234;-2.094;2023-02-28T15:30:22;2;2;
73241;PMS5003;65659;49.234;-2.094;2023-02-28T15:35:19;3;3;
73241;PMS5003;65659;49.234;-2.094;2023-02-28T15:37:40;3;3;
73241;PMS5003;65659;49.234;-2.094;2023-02-28T15:40:10;4;4;
73241;PMS5003;65659;49.234;-2.094;2023-02-28T15:42:30;5;5;
73241;PMS5003;65659;49.234;-2.094;2023-02-28T15:44:55;3;3;
73241;PMS5003;65659;49.234;-2.094;2023-02-28T15:47:22;4;4;
73241;PMS5003;65659;49.234;-2.094;2023-02-28T15:49:49;3;3;
73241;PMS5003;65659;49.234;-2.094;2023-02-28T15:52:13;3;3;
73241;PMS5003;65659;49.234;-2.094;2023-02-28T15:54:38;4;4;
73241;PMS5003;65659;49.234;-2.094;2023-02-28T15:57:04;3;3;
73241;PMS5003;65659;49.234;-2.094;2023-02-28T15:59:30;4;4;
73241;PMS5003;65659;49.234;-2.094;2023-02-28T16:04:21;3;3;
73241;PMS5003;65659;49.234;-2.094;2023-02-28T16:06:47;5;5;
73241;PMS5003;65659;49.234;-2.094;2023-02-28T16:09:13;2;2;
73241;PMS5003;65659;49.234;-2.094;2023-02-28T16:11:39;3;3;
73241;PMS5003;65659;49.234;-2.094;2023-02-28T16:14:04;3;3;
73241;PMS5003;65659;49.234;-2.094;2023-02-28T16:16:30;3;3;
73241;PMS5003;65659;49.234;-2.094;2023-02-28T16:18:55;2;2;
73241;PMS5003;65659;49.234;-2.094;2023-02-28T16:21:21;2;2;
73241;PMS5003;65659;49.234;-2.094;2023-02-28T16:23:47;4;3;
73241;PMS5003;65659;49.234;-2.094;2023-02-28T16:26:16;2;2;
73241;PMS5003;65659;49.234;-2.094;2023-02-28T16:28:38;3;2;
73241;PMS5003;65659;49.234;-2.094;2023-02-28T16:31:05;2;2;
73241;PMS5003;65659;49.234;-2.094;2023-02-28T16:33:30;3;2;
73241;PMS5003;65659;49.234;-2.094;2023-02-28T16:35:55;3;3;
73241;PMS5003;65659;49.234;-2.094;2023-02-28T16:38:21;2;2;
73241;PMS5003;65659;49.234;-2.094;2023-02-28T16:40:47;0;0;
73241;PMS5003;65659;49.234;-2.094;2023-02-28T16:43:14;1;0;
73241;PMS5003;65659;49.234;-2.094;2023-02-28T16:45:38;2;2;
73241;PMS5003;65659;49.234;-2.094;2023-02-28T16:48:04;1;1;
73241;PMS5003;65659;49.234;-2.094;2023-02-28T16:50:30;1;1;
73241;PMS5003;65659;49.234;-2.094;2023-02-28T16:52:55;1;1;
73241;PMS5003;65659;49.234;-2.094;2023-02-28T16:55:22;2;2;
73241;PMS5003;65659;49.234;-2.094;2023-02-28T16:57:48;1;0;
73241;PMS5003;65659;49.234;-2.094;2023-02-28T17:00:13;2;2;
73241;PMS5003;65659;49.234;-2.094;2023-02-28T17:02:38;1;1;
73241;PMS5003;65659;49.234;-2.094;2023-02-28T17:05:04;1;1;